sensor_id;sensor_type;location;lat;lon;timestamp;pressure;altitude;pressure_sealevel;temperature;humidity
62708;BME280;48769;51.624;5.886;2022-08-19T00:00:13;101177.69;;;19.45;100.00
62708;BME280;48769;51.624;5.886;2022-08-19T00:02:40;101176.00;;;19.44;100.00
62708;BME280;48769;51.624;5.886;2022-08-19T00:05:07;101174.41;;;19.41;100.00
62708;BME280;48769;51.624;5.886;2022-08-19T00:07:32;101169.69;;;19.33;100.00
62708;BME280;48769;51.624;5.886;2022-08-19T00:09:58;101171.91;;;19.28;100.00
62708;BME280;48769;51.624;5.886;2022-08-19T00:12:23;101176.53;;;19.26;100.00
62708;BME280;48769;51.624;5.886;2022-08-19T00:14:48;101166.06;;;19.23;100.00
62708;BME280;48769;51.624;5.886;2022-08-19T00:17:14;101173.50;;;19.20;100.00
62708;BME280;48769;51.624;5.886;2022-08-19T00:19:39;101175.59;;;19.16;100.00
62708;BME280;48769;51.624;5.886;2022-08-19T00:22:06;101175.16;;;19.11;100.00
62708;BME280;48769;51.624;5.886;2022-08-19T00:24:34;101170.28;;;19.05;100.00
62708;BME280;48769;51.624;5.886;2022-08-19T00:26:59;101166.03;;;19.02;100.00
62708;BME280;48769;51.624;5.886;2022-08-19T00:29:26;101173.47;;;18.99;100.00
62708;BME280;48769;51.624;5.886;2022-08-19T00:31:52;101178.31;;;18.94;100.00
62708;BME280;48769;51.624;5.886;2022-08-19T00:34:22;101178.38;;;18.82;100.00
62708;BME280;48769;51.624;5.886;2022-08-19T00:36:48;101186.41;;;18.82;100.00
62708;BME280;48769;51.624;5.886;2022-08-19T00:39:15;101187.50;;;18.80;100.00
62708;BME280;48769;51.624;5.886;2022-08-19T00:41:42;101183.72;;;18.82;100.00
62708;BME280;48769;51.624;5.886;2022-08-19T00:44:13;101181.53;;;18.76;100.00
62708;BME280;48769;51.624;5.886;2022-08-19T00:46:41;101180.19;;;18.82;100.00
62708;BME280;48769;51.624;5.886;2022-08-19T00:49:11;101169.50;;;18.82;100.00
62708;BME280;48769;51.624;5.886;2022-08-19T00:51:41;101166.66;;;18.83;100.00
62708;BME280;48769;51.624;5.886;2022-08-19T00:54:07;101174.59;;;18.85;100.00
62708;BME280;48769;51.624;5.886;2022-08-19T00:56:35;101174.22;;;18.78;100.00
62708;BME280;48769;51.624;5.886;2022-08-19T00:59:01;101174.50;;;18.75;100.00
62708;BME280;48769;51.624;5.886;2022-08-19T01:01:27;101177.88;;;18.77;100.00
62708;BME280;48769;51.624;5.886;2022-08-19T01:03:53;101177.47;;;18.71;100.00
62708;BME280;48769;51.624;5.886;2022-08-19T01:06:18;101181.38;;;18.66;100.00
62708;BME280;48769;51.624;5.886;2022-08-19T01:08:44;101181.88;;;18.60;100.00
62708;BME280;48769;51.624;5.886;2022-08-19T01:11:09;101186.38;;;18.37;100.00
62708;BME280;48769;51.624;5.886;2022-08-19T01:13:37;101184.66;;;18.25;100.00
62708;BME280;48769;51.624;5.886;2022-08-19T01:16:07;101186.97;;;18.18;100.00
62708;BME280;48769;51.624;5.886;2022-08-19T01:18:37;101186.22;;;18.05;100.00
62708;BME280;48769;51.624;5.886;2022-08-19T01:21:09;101189.50;;;18.09;100.00
62708;BME280;48769;51.624;5.886;2022-08-19T01:23:35;101184.44;;;18.17;100.00
62708;BME280;48769;51.624;5.886;2022-08-19T01:26:23;101179.41;;;18.01;100.00
62708;BME280;48769;51.624;5.886;2022-08-19T01:28:52;101179.28;;;17.91;100.00
62708;BME280;48769;51.624;5.886;2022-08-19T01:31:21;101178.91;;;17.85;100.00
62708;BME280;48769;51.624;5.886;2022-08-19T01:33:49;101182.53;;;17.84;100.00
62708;BME280;48769;51.624;5.886;2022-08-19T01:36:22;101188.00;;;17.93;100.00
62708;BME280;48769;51.624;5.886;2022-08-19T01:38:48;101183.28;;;17.97;100.00
62708;BME280;48769;51.624;5.886;2022-08-19T01:41:15;101183.69;;;18.04;100.00
62708;BME280;48769;51.624;5.886;2022-08-19T01:43:42;101186.00;;;18.08;100.00
62708;BME280;48769;51.624;5.886;2022-08-19T01:46:07;101195.38;;;18.14;100.00
62708;BME280;48769;51.624;5.886;2022-08-19T01:48:38;101190.00;;;18.14;100.00
62708;BME280;48769;51.624;5.886;2022-08-19T01:51:04;101187.53;;;17.99;100.00
62708;BME280;48769;51.624;5.886;2022-08-19T01:53:29;101187.78;;;17.96;100.00
62708;BME280;48769;51.624;5.886;2022-08-19T01:55:55;101188.38;;;18.00;100.00
62708;BME280;48769;51.624;5.886;2022-08-19T01:58:25;101195.69;;;17.98;100.00
62708;BME280;48769;51.624;5.886;2022-08-19T02:00:52;101203.19;;;17.93;100.00
62708;BME280;48769;51.624;5.886;2022-08-19T02:03:17;101191.66;;;17.92;100.00
62708;BME280;48769;51.624;5.886;2022-08-19T02:05:44;101194.38;;;18.04;100.00
62708;BME280;48769;51.624;5.886;2022-08-19T02:08:11;101201.91;;;18.10;100.00
62708;BME280;48769;51.624;5.886;2022-08-19T02:10:43;101206.06;;;18.14;100.00
62708;BME280;48769;51.624;5.886;2022-08-19T02:13:10;101213.81;;;18.06;100.00
62708;BME280;48769;51.624;5.886;2022-08-19T02:15:36;101210.16;;;18.07;100.00
62708;BME280;48769;51.624;5.886;2022-08-19T02:18:01;101204.94;;;18.05;100.00
62708;BME280;48769;51.624;5.886;2022-08-19T02:20:26;101204.09;;;18.05;100.00
62708;BME280;48769;51.624;5.886;2022-08-19T02:22:52;101201.13;;;17.96;100.00
62708;BME280;48769;51.624;5.886;2022-08-19T02:25:17;101192.75;;;17.90;100.00
62708;BME280;48769;51.624;5.886;2022-08-19T02:27:43;101196.63;;;17.86;100.00
62708;BME280;48769;51.624;5.886;2022-08-19T02:30:12;101192.38;;;17.83;100.00
62708;BME280;48769;51.624;5.886;2022-08-19T02:32:37;101198.22;;;17.88;100.00
62708;BME280;48769;51.624;5.886;2022-08-19T02:35:03;101198.47;;;17.96;100.00
62708;BME280;48769;51.624;5.886;2022-08-19T02:37:29;101202.88;;;17.97;100.00
62708;BME280;48769;51.624;5.886;2022-08-19T02:40:13;101201.00;;;17.87;100.00
62708;BME280;48769;51.624;5.886;2022-08-19T02:42:40;101209.16;;;17.85;100.00
62708;BME280;48769;51.624;5.886;2022-08-19T02:45:06;101201.59;;;17.79;100.00
62708;BME280;48769;51.624;5.886;2022-08-19T02:47:33;101209.72;;;17.78;100.00
62708;BME280;48769;51.624;5.886;2022-08-19T02:50:01;101216.38;;;17.72;100.00
62708;BME280;48769;51.624;5.886;2022-08-19T02:52:26;101214.63;;;17.71;100.00
62708;BME280;48769;51.624;5.886;2022-08-19T02:54:52;101219.97;;;17.71;100.00
62708;BME280;48769;51.624;5.886;2022-08-19T02:57:17;101214.63;;;17.71;100.00
62708;BME280;48769;51.624;5.886;2022-08-19T02:59:43;101218.28;;;17.70;100.00
62708;BME280;48769;51.624;5.886;2022-08-19T03:02:08;101203.78;;;17.61;100.00
62708;BME280;48769;51.624;5.886;2022-08-19T03:04:34;101206.44;;;17.50;100.00
62708;BME280;48769;51.624;5.886;2022-08-19T03:06:59;101202.84;;;17.38;100.00
62708;BME280;48769;51.624;5.886;2022-08-19T03:09:24;101199.47;;;17.36;100.00
62708;BME280;48769;51.624;5.886;2022-08-19T03:11:50;101196.66;;;17.38;100.00
62708;BME280;48769;51.624;5.886;2022-08-19T03:14:15;101191.31;;;17.38;100.00
62708;BME280;48769;51.624;5.886;2022-08-19T03:16:48;101198.53;;;17.48;100.00
62708;BME280;48769;51.624;5.886;2022-08-19T03:19:17;101208.75;;;17.55;100.00
62708;BME280;48769;51.624;5.886;2022-08-19T03:21:43;101213.91;;;17.45;100.00
62708;BME280;48769;51.624;5.886;2022-08-19T03:24:10;101218.88;;;17.38;100.00
62708;BME280;48769;51.624;5.886;2022-08-19T03:26:44;101213.97;;;17.32;100.00
62708;BME280;48769;51.624;5.886;2022-08-19T03:29:10;101214.63;;;17.36;100.00
62708;BME280;48769;51.624;5.886;2022-08-19T03:31:37;101209.06;;;17.39;100.00
62708;BME280;48769;51.624;5.886;2022-08-19T03:34:03;101219.56;;;17.29;100.00
62708;BME280;48769;51.624;5.886;2022-08-19T03:36:29;101225.13;;;17.26;100.00
62708;BME280;48769;51.624;5.886;2022-08-19T03:38:59;101223.63;;;17.22;100.00
62708;BME280;48769;51.624;5.886;2022-08-19T03:41:27;101219.66;;;17.27;100.00
62708;BME280;48769;51.624;5.886;2022-08-19T03:43:53;101220.66;;;17.26;100.00
62708;BME280;48769;51.624;5.886;2022-08-19T03:46:21;101210.69;;;17.28;100.00
62708;BME280;48769;51.624;5.886;2022-08-19T03:48:49;101213.25;;;17.30;100.00
62708;BME280;48769;51.624;5.886;2022-08-19T03:51:30;101206.94;;;17.31;100.00
62708;BME280;48769;51.624;5.886;2022-08-19T03:53:57;101210.97;;;17.37;100.00
62708;BME280;48769;51.624;5.886;2022-08-19T03:56:22;101208.19;;;17.38;100.00
62708;BME280;48769;51.624;5.886;2022-08-19T03:58:50;101203.81;;;17.37;100.00
62708;BME280;48769;51.624;5.886;2022-08-19T04:01:18;101209.16;;;17.37;100.00
62708;BME280;48769;51.624;5.886;2022-08-19T04:03:44;101213.53;;;17.38;100.00
62708;BME280;48769;51.624;5.886;2022-08-19T04:06:18;101219.31;;;17.32;100.00
62708;BME280;48769;51.624;5.886;2022-08-19T04:08:46;101212.50;;;17.28;100.00
62708;BME280;48769;51.624;5.886;2022-08-19T04:11:14;101211.03;;;17.24;100.00
62708;BME280;48769;51.624;5.886;2022-08-19T04:13:40;101214.22;;;17.29;100.00
62708;BME280;48769;51.624;5.886;2022-08-19T04:16:07;101213.97;;;17.32;100.00
62708;BME280;48769;51.624;5.886;2022-08-19T04:18:35;101205.25;;;17.30;100.00
62708;BME280;48769;51.624;5.886;2022-08-19T04:21:00;101197.84;;;17.34;100.00
62708;BME280;48769;51.624;5.886;2022-08-19T04:23:26;101191.94;;;17.41;100.00
62708;BME280;48769;51.624;5.886;2022-08-19T04:25:53;101192.69;;;17.43;100.00
62708;BME280;48769;51.624;5.886;2022-08-19T04:28:19;101189.78;;;17.46;100.00
62708;BME280;48769;51.624;5.886;2022-08-19T04:30:47;101186.38;;;17.44;100.00
62708;BME280;48769;51.624;5.886;2022-08-19T04:33:15;101184.44;;;17.46;100.00
62708;BME280;48769;51.624;5.886;2022-08-19T04:35:44;101187.34;;;17.43;100.00
62708;BME280;48769;51.624;5.886;2022-08-19T04:38:10;101189.16;;;17.43;100.00
62708;BME280;48769;51.624;5.886;2022-08-19T04:40:41;101193.44;;;17.45;100.00
62708;BME280;48769;51.624;5.886;2022-08-19T04:43:26;101196.81;;;17.47;100.00
62708;BME280;48769;51.624;5.886;2022-08-19T04:45:52;101201.09;;;17.50;100.00
62708;BME280;48769;51.624;5.886;2022-08-19T04:48:17;101195.53;;;17.53;100.00
62708;BME280;48769;51.624;5.886;2022-08-19T04:50:54;101202.91;;;17.49;100.00
62708;BME280;48769;51.624;5.886;2022-08-19T04:53:26;101200.25;;;17.49;100.00
62708;BME280;48769;51.624;5.886;2022-08-19T04:55:56;101209.84;;;17.52;100.00
62708;BME280;48769;51.624;5.886;2022-08-19T04:58:24;101207.91;;;17.54;100.00
62708;BME280;48769;51.624;5.886;2022-08-19T05:00:50;101208.97;;;17.51;100.00
62708;BME280;48769;51.624;5.886;2022-08-19T05:03:16;101200.69;;;17.43;100.00
62708;BME280;48769;51.624;5.886;2022-08-19T05:05:43;101209.22;;;17.48;100.00
62708;BME280;48769;51.624;5.886;2022-08-19T05:08:10;101208.34;;;17.48;100.00
62708;BME280;48769;51.624;5.886;2022-08-19T05:10:39;101212.38;;;17.53;100.00
62708;BME280;48769;51.624;5.886;2022-08-19T05:13:04;101217.72;;;17.53;100.00
62708;BME280;48769;51.624;5.886;2022-08-19T05:15:30;101220.41;;;17.53;100.00
62708;BME280;48769;51.624;5.886;2022-08-19T05:17:56;101222.00;;;17.56;100.00
62708;BME280;48769;51.624;5.886;2022-08-19T05:20:40;101226.50;;;17.56;100.00
62708;BME280;48769;51.624;5.886;2022-08-19T05:23:24;101226.81;;;17.51;100.00
62708;BME280;48769;51.624;5.886;2022-08-19T05:25:51;101222.84;;;17.57;100.00
62708;BME280;48769;51.624;5.886;2022-08-19T05:28:18;101230.63;;;17.60;100.00
62708;BME280;48769;51.624;5.886;2022-08-19T05:30:44;101233.09;;;17.63;100.00
62708;BME280;48769;51.624;5.886;2022-08-19T05:33:10;101235.53;;;17.66;100.00
62708;BME280;48769;51.624;5.886;2022-08-19T05:35:37;101239.16;;;17.65;100.00
62708;BME280;48769;51.624;5.886;2022-08-19T05:38:03;101237.75;;;17.72;100.00
62708;BME280;48769;51.624;5.886;2022-08-19T05:40:28;101231.72;;;17.81;100.00
62708;BME280;48769;51.624;5.886;2022-08-19T05:42:54;101238.31;;;17.88;100.00
62708;BME280;48769;51.624;5.886;2022-08-19T05:45:19;101235.94;;;18.19;100.00
62708;BME280;48769;51.624;5.886;2022-08-19T05:47:46;101241.22;;;18.54;100.00
62708;BME280;48769;51.624;5.886;2022-08-19T05:50:11;101237.34;;;18.81;100.00
62708;BME280;48769;51.624;5.886;2022-08-19T05:52:37;101239.22;;;19.24;100.00
62708;BME280;48769;51.624;5.886;2022-08-19T05:55:03;101236.38;;;19.48;100.00
62708;BME280;48769;51.624;5.886;2022-08-19T05:57:29;101230.13;;;19.70;100.00
62708;BME280;48769;51.624;5.886;2022-08-19T05:59:55;101227.44;;;19.58;100.00
62708;BME280;48769;51.624;5.886;2022-08-19T06:02:21;101233.16;;;19.65;100.00
62708;BME280;48769;51.624;5.886;2022-08-19T06:04:47;101232.41;;;19.74;100.00
62708;BME280;48769;51.624;5.886;2022-08-19T06:07:13;101234.94;;;19.76;100.00
62708;BME280;48769;51.624;5.886;2022-08-19T06:09:39;101233.41;;;19.73;100.00
62708;BME280;48769;51.624;5.886;2022-08-19T06:12:05;101243.72;;;19.78;100.00
62708;BME280;48769;51.624;5.886;2022-08-19T06:14:33;101240.94;;;19.79;100.00
62708;BME280;48769;51.624;5.886;2022-08-19T06:17:00;101248.16;;;19.68;100.00
62708;BME280;48769;51.624;5.886;2022-08-19T06:19:28;101248.88;;;19.58;100.00
62708;BME280;48769;51.624;5.886;2022-08-19T06:21:57;101242.94;;;19.55;100.00
62708;BME280;48769;51.624;5.886;2022-08-19T06:24:26;101250.72;;;19.58;100.00
62708;BME280;48769;51.624;5.886;2022-08-19T06:26:53;101255.09;;;19.59;100.00
62708;BME280;48769;51.624;5.886;2022-08-19T06:29:24;101256.94;;;19.70;100.00
62708;BME280;48769;51.624;5.886;2022-08-19T06:31:55;101250.97;;;19.66;100.00
62708;BME280;48769;51.624;5.886;2022-08-19T06:34:21;101254.84;;;19.62;100.00
62708;BME280;48769;51.624;5.886;2022-08-19T06:36:49;101249.97;;;19.56;100.00
62708;BME280;48769;51.624;5.886;2022-08-19T06:39:22;101255.59;;;19.64;100.00
62708;BME280;48769;51.624;5.886;2022-08-19T06:41:49;101247.13;;;19.80;100.00
62708;BME280;48769;51.624;5.886;2022-08-19T06:44:16;101250.47;;;19.93;100.00
62708;BME280;48769;51.624;5.886;2022-08-19T06:46:42;101256.22;;;19.89;100.00
62708;BME280;48769;51.624;5.886;2022-08-19T06:49:07;101253.09;;;19.83;100.00
62708;BME280;48769;51.624;5.886;2022-08-19T06:51:42;101252.44;;;19.91;100.00
62708;BME280;48769;51.624;5.886;2022-08-19T06:54:09;101249.16;;;19.88;100.00
62708;BME280;48769;51.624;5.886;2022-08-19T06:56:35;101254.00;;;19.94;100.00
62708;BME280;48769;51.624;5.886;2022-08-19T06:59:09;101254.59;;;19.97;100.00
62708;BME280;48769;51.624;5.886;2022-08-19T07:01:39;101256.91;;;20.02;100.00
62708;BME280;48769;51.624;5.886;2022-08-19T07:04:08;101246.81;;;20.15;100.00
62708;BME280;48769;51.624;5.886;2022-08-19T07:06:35;101255.63;;;20.27;100.00
62708;BME280;48769;51.624;5.886;2022-08-19T07:09:01;101247.78;;;20.35;100.00
62708;BME280;48769;51.624;5.886;2022-08-19T07:11:27;101252.63;;;20.41;100.00
62708;BME280;48769;51.624;5.886;2022-08-19T07:13:52;101249.53;;;20.46;100.00
62708;BME280;48769;51.624;5.886;2022-08-19T07:16:19;101259.88;;;20.71;100.00
62708;BME280;48769;51.624;5.886;2022-08-19T07:18:46;101260.34;;;20.86;100.00
62708;BME280;48769;51.624;5.886;2022-08-19T07:21:19;101269.81;;;20.81;100.00
62708;BME280;48769;51.624;5.886;2022-08-19T07:23:45;101266.50;;;20.67;100.00
62708;BME280;48769;51.624;5.886;2022-08-19T07:26:18;101268.91;;;20.70;100.00
62708;BME280;48769;51.624;5.886;2022-08-19T07:28:45;101271.41;;;20.62;100.00
62708;BME280;48769;51.624;5.886;2022-08-19T07:31:12;101274.72;;;20.75;100.00
62708;BME280;48769;51.624;5.886;2022-08-19T07:33:39;101276.28;;;20.78;100.00
62708;BME280;48769;51.624;5.886;2022-08-19T07:36:06;101276.59;;;20.85;100.00
62708;BME280;48769;51.624;5.886;2022-08-19T07:38:33;101267.19;;;21.00;100.00
62708;BME280;48769;51.624;5.886;2022-08-19T07:40:59;101271.44;;;21.12;100.00
62708;BME280;48769;51.624;5.886;2022-08-19T07:43:25;101273.03;;;21.24;100.00
62708;BME280;48769;51.624;5.886;2022-08-19T07:45:53;101268.97;;;21.30;100.00
62708;BME280;48769;51.624;5.886;2022-08-19T07:48:22;101281.03;;;21.36;100.00
62708;BME280;48769;51.624;5.886;2022-08-19T07:50:50;101283.88;;;21.44;100.00
62708;BME280;48769;51.624;5.886;2022-08-19T07:53:15;101277.66;;;21.63;100.00
62708;BME280;48769;51.624;5.886;2022-08-19T07:55:40;101277.41;;;21.76;100.00
62708;BME280;48769;51.624;5.886;2022-08-19T07:58:06;101277.25;;;21.87;100.00
62708;BME280;48769;51.624;5.886;2022-08-19T08:00:31;101277.97;;;21.89;100.00
62708;BME280;48769;51.624;5.886;2022-08-19T08:02:57;101285.03;;;21.90;100.00
62708;BME280;48769;51.624;5.886;2022-08-19T08:05:23;101288.16;;;21.95;100.00
62708;BME280;48769;51.624;5.886;2022-08-19T08:08:07;101287.88;;;22.08;100.00
62708;BME280;48769;51.624;5.886;2022-08-19T08:10:51;101290.00;;;22.04;100.00
62708;BME280;48769;51.624;5.886;2022-08-19T08:13:16;101294.66;;;22.12;100.00
62708;BME280;48769;51.624;5.886;2022-08-19T08:15:41;101292.41;;;22.27;100.00
62708;BME280;48769;51.624;5.886;2022-08-19T08:18:10;101298.47;;;22.29;100.00
62708;BME280;48769;51.624;5.886;2022-08-19T08:20:37;101300.03;;;22.41;100.00
62708;BME280;48769;51.624;5.886;2022-08-19T08:23:03;101309.94;;;22.50;100.00
62708;BME280;48769;51.624;5.886;2022-08-19T08:25:48;101304.50;;;22.70;100.00
62708;BME280;48769;51.624;5.886;2022-08-19T08:28:14;101303.06;;;22.75;100.00
62708;BME280;48769;51.624;5.886;2022-08-19T08:30:40;101298.09;;;22.71;100.00
62708;BME280;48769;51.624;5.886;2022-08-19T08:33:07;101306.69;;;22.84;100.00
62708;BME280;48769;51.624;5.886;2022-08-19T08:35:33;101302.72;;;22.98;100.00
62708;BME280;48769;51.624;5.886;2022-08-19T08:37:58;101307.44;;;23.14;100.00
62708;BME280;48769;51.624;5.886;2022-08-19T08:40:31;101306.34;;;23.34;100.00
62708;BME280;48769;51.624;5.886;2022-08-19T08:43:06;101316.78;;;23.47;100.00
62708;BME280;48769;51.624;5.886;2022-08-19T08:45:35;101311.69;;;23.62;100.00
62708;BME280;48769;51.624;5.886;2022-08-19T08:48:05;101315.47;;;23.51;100.00
62708;BME280;48769;51.624;5.886;2022-08-19T08:50:39;101306.53;;;23.50;100.00
62708;BME280;48769;51.624;5.886;2022-08-19T08:53:08;101299.94;;;23.63;100.00
62708;BME280;48769;51.624;5.886;2022-08-19T08:55:35;101294.13;;;23.58;98.91
62708;BME280;48769;51.624;5.886;2022-08-19T08:58:14;101300.13;;;23.51;98.92
62708;BME280;48769;51.624;5.886;2022-08-19T09:00:45;101297.31;;;23.53;100.00
62708;BME280;48769;51.624;5.886;2022-08-19T09:03:20;101299.22;;;23.61;99.35
62708;BME280;48769;51.624;5.886;2022-08-19T09:14:29;101284.91;;;23.78;95.40
62708;BME280;48769;51.624;5.886;2022-08-19T09:16:57;101275.66;;;23.63;92.90
62708;BME280;48769;51.624;5.886;2022-08-19T09:19:22;101283.34;;;23.58;95.06
62708;BME280;48769;51.624;5.886;2022-08-19T09:21:48;101279.50;;;23.60;94.25
62708;BME280;48769;51.624;5.886;2022-08-19T09:24:14;101282.69;;;23.73;94.00
62708;BME280;48769;51.624;5.886;2022-08-19T09:26:39;101280.91;;;23.82;94.23
62708;BME280;48769;51.624;5.886;2022-08-19T09:29:05;101283.00;;;23.88;93.36
62708;BME280;48769;51.624;5.886;2022-08-19T09:31:31;101288.06;;;23.91;95.22
62708;BME280;48769;51.624;5.886;2022-08-19T09:33:58;101267.41;;;24.00;91.42
62708;BME280;48769;51.624;5.886;2022-08-19T09:36:25;101262.72;;;24.02;86.98
62708;BME280;48769;51.624;5.886;2022-08-19T09:38:52;101272.31;;;24.05;87.54
62708;BME280;48769;51.624;5.886;2022-08-19T09:41:20;101270.59;;;23.95;89.13
62708;BME280;48769;51.624;5.886;2022-08-19T09:43:49;101270.34;;;24.07;90.22
62708;BME280;48769;51.624;5.886;2022-08-19T09:46:18;101276.13;;;24.12;89.48
62708;BME280;48769;51.624;5.886;2022-08-19T09:48:44;101276.88;;;24.22;89.66
62708;BME280;48769;51.624;5.886;2022-08-19T09:51:15;101270.84;;;24.28;88.89
62708;BME280;48769;51.624;5.886;2022-08-19T09:53:42;101272.31;;;24.22;87.97
62708;BME280;48769;51.624;5.886;2022-08-19T09:56:08;101280.25;;;24.24;87.97
62708;BME280;48769;51.624;5.886;2022-08-19T09:58:34;101281.16;;;24.33;89.05
62708;BME280;48769;51.624;5.886;2022-08-19T10:01:00;101284.56;;;24.17;88.25
62708;BME280;48769;51.624;5.886;2022-08-19T10:03:28;101283.13;;;24.22;89.10
62708;BME280;48769;51.624;5.886;2022-08-19T10:05:55;101283.25;;;24.21;87.84
62708;BME280;48769;51.624;5.886;2022-08-19T10:08:24;101291.56;;;24.27;89.60
62708;BME280;48769;51.624;5.886;2022-08-19T10:10:51;101300.28;;;24.39;89.61
62708;BME280;48769;51.624;5.886;2022-08-19T10:13:21;101290.94;;;24.52;87.70
62708;BME280;48769;51.624;5.886;2022-08-19T10:15:53;101283.69;;;24.52;86.95
62708;BME280;48769;51.624;5.886;2022-08-19T10:18:20;101298.09;;;24.61;88.63
62708;BME280;48769;51.624;5.886;2022-08-19T10:20:48;101296.25;;;24.69;91.79
62708;BME280;48769;51.624;5.886;2022-08-19T10:23:14;101301.22;;;24.74;93.40
62708;BME280;48769;51.624;5.886;2022-08-19T10:25:40;101290.44;;;24.82;90.82
62708;BME280;48769;51.624;5.886;2022-08-19T10:28:06;101299.38;;;24.83;92.63
62708;BME280;48769;51.624;5.886;2022-08-19T10:30:33;101296.34;;;24.86;91.53
62708;BME280;48769;51.624;5.886;2022-08-19T10:32:58;101305.66;;;24.83;92.33
62708;BME280;48769;51.624;5.886;2022-08-19T10:35:24;101302.16;;;24.65;92.28
62708;BME280;48769;51.624;5.886;2022-08-19T10:37:55;101299.78;;;24.62;91.87
62708;BME280;48769;51.624;5.886;2022-08-19T10:40:26;101301.56;;;24.53;92.51
62708;BME280;48769;51.624;5.886;2022-08-19T10:42:52;101308.16;;;24.51;93.52
62708;BME280;48769;51.624;5.886;2022-08-19T10:45:18;101296.34;;;24.34;92.22
62708;BME280;48769;51.624;5.886;2022-08-19T10:47:43;101304.50;;;24.16;93.13
62708;BME280;48769;51.624;5.886;2022-08-19T10:50:09;101310.78;;;24.42;95.60
62708;BME280;48769;51.624;5.886;2022-08-19T10:52:53;101301.16;;;24.66;92.13
62708;BME280;48769;51.624;5.886;2022-08-19T10:55:21;101292.09;;;24.75;89.13
62708;BME280;48769;51.624;5.886;2022-08-19T10:58:17;101292.78;;;24.77;89.72
62708;BME280;48769;51.624;5.886;2022-08-19T11:00:52;101301.44;;;24.55;90.56
62708;BME280;48769;51.624;5.886;2022-08-19T11:03:18;101290.97;;;24.60;88.64
62708;BME280;48769;51.624;5.886;2022-08-19T11:05:44;101288.09;;;24.35;88.68
62708;BME280;48769;51.624;5.886;2022-08-19T11:08:09;101282.59;;;24.19;87.38
62708;BME280;48769;51.624;5.886;2022-08-19T11:10:36;101284.13;;;24.03;89.07
62708;BME280;48769;51.624;5.886;2022-08-19T11:13:02;101292.09;;;24.05;90.36
62708;BME280;48769;51.624;5.886;2022-08-19T11:15:27;101295.25;;;24.00;91.16
62708;BME280;48769;51.624;5.886;2022-08-19T11:17:53;101294.00;;;24.13;92.25
62708;BME280;48769;51.624;5.886;2022-08-19T11:20:19;101289.78;;;24.36;91.80
62708;BME280;48769;51.624;5.886;2022-08-19T11:22:45;101301.75;;;24.52;91.27
62708;BME280;48769;51.624;5.886;2022-08-19T11:25:11;101286.75;;;24.57;88.79
62708;BME280;48769;51.624;5.886;2022-08-19T11:27:40;101291.34;;;24.65;88.34
62708;BME280;48769;51.624;5.886;2022-08-19T11:30:08;101285.03;;;24.82;87.54
62708;BME280;48769;51.624;5.886;2022-08-19T11:32:33;101283.41;;;24.98;87.43
62708;BME280;48769;51.624;5.886;2022-08-19T11:34:59;101282.75;;;25.04;88.05
62708;BME280;48769;51.624;5.886;2022-08-19T11:37:24;101270.00;;;25.14;87.52
62708;BME280;48769;51.624;5.886;2022-08-19T11:39:50;101276.41;;;25.13;86.55
62708;BME280;48769;51.624;5.886;2022-08-19T11:42:17;101276.72;;;25.10;85.41
62708;BME280;48769;51.624;5.886;2022-08-19T11:45:01;101279.72;;;24.72;86.67
62708;BME280;48769;51.624;5.886;2022-08-19T11:47:28;101276.25;;;24.80;87.66
62708;BME280;48769;51.624;5.886;2022-08-19T11:49:54;101281.34;;;24.83;87.27
62708;BME280;48769;51.624;5.886;2022-08-19T11:52:19;101271.56;;;24.90;86.51
62708;BME280;48769;51.624;5.886;2022-08-19T11:54:44;101258.06;;;24.99;85.44
62708;BME280;48769;51.624;5.886;2022-08-19T11:57:10;101262.25;;;25.19;84.89
62708;BME280;48769;51.624;5.886;2022-08-19T11:59:35;101261.41;;;25.27;83.38
62708;BME280;48769;51.624;5.886;2022-08-19T12:02:00;101269.19;;;25.38;86.64
62708;BME280;48769;51.624;5.886;2022-08-19T12:04:26;101275.69;;;25.61;86.46
62708;BME280;48769;51.624;5.886;2022-08-19T12:06:51;101265.06;;;25.68;85.65
62708;BME280;48769;51.624;5.886;2022-08-19T12:09:16;101268.91;;;25.74;84.19
62708;BME280;48769;51.624;5.886;2022-08-19T12:11:43;101262.72;;;25.81;83.42
62708;BME280;48769;51.624;5.886;2022-08-19T12:14:10;101264.69;;;25.79;83.80
62708;BME280;48769;51.624;5.886;2022-08-19T12:16:36;101269.13;;;25.80;83.56
62708;BME280;48769;51.624;5.886;2022-08-19T12:19:04;101269.78;;;25.74;81.99
62708;BME280;48769;51.624;5.886;2022-08-19T12:21:31;101272.66;;;25.64;82.17
62708;BME280;48769;51.624;5.886;2022-08-19T12:23:58;101268.72;;;25.51;83.56
62708;BME280;48769;51.624;5.886;2022-08-19T12:26:25;101265.03;;;25.52;83.46
62708;BME280;48769;51.624;5.886;2022-08-19T12:28:51;101272.13;;;25.53;83.38
62708;BME280;48769;51.624;5.886;2022-08-19T12:31:17;101262.66;;;25.49;82.37
62708;BME280;48769;51.624;5.886;2022-08-19T12:33:43;101263.16;;;25.60;83.91
62708;BME280;48769;51.624;5.886;2022-08-19T12:36:11;101270.09;;;25.63;82.91
62708;BME280;48769;51.624;5.886;2022-08-19T12:38:39;101262.97;;;25.46;84.18
62708;BME280;48769;51.624;5.886;2022-08-19T12:41:06;101269.88;;;25.40;84.38
62708;BME280;48769;51.624;5.886;2022-08-19T12:43:35;101260.59;;;25.51;83.85
62708;BME280;48769;51.624;5.886;2022-08-19T12:46:03;101261.81;;;25.56;84.20
62708;BME280;48769;51.624;5.886;2022-08-19T12:48:29;101266.41;;;25.72;84.62
62708;BME280;48769;51.624;5.886;2022-08-19T12:50:54;101259.44;;;25.70;82.21
62708;BME280;48769;51.624;5.886;2022-08-19T12:53:20;101256.59;;;25.79;83.35